sensor_id;sensor_type;location;lat;lon;timestamp;pressure;altitude;pressure_sealevel;temperature;humidity
51315;BME280;65787;59.922;10.742;2023-06-10T00:00:47;101970.03;;;24.07;16.05
51315;BME280;65787;59.922;10.742;2023-06-10T00:03:12;101979.75;;;23.98;16.26
51315;BME280;65787;59.922;10.742;2023-06-10T00:05:38;101979.94;;;23.91;16.85
51315;BME280;65787;59.922;10.742;2023-06-10T00:08:04;101980.94;;;23.85;16.41
51315;BME280;65787;59.922;10.742;2023-06-10T00:10:32;101989.25;;;23.78;16.46
51315;BME280;65787;59.922;10.742;2023-06-10T00:12:58;101989.16;;;23.73;16.47
51315;BME280;65787;59.922;10.742;2023-06-10T00:15:23;101995.03;;;23.65;16.40
51315;BME280;65787;59.922;10.742;2023-06-10T00:17:48;101993.00;;;23.60;16.68
51315;BME280;65787;59.922;10.742;2023-06-10T00:20:14;101991.59;;;23.57;16.80
51315;BME280;65787;59.922;10.742;2023-06-10T00:22:39;101990.31;;;23.48;16.59
51315;BME280;65787;59.922;10.742;2023-06-10T00:25:06;101997.44;;;23.49;17.08
51315;BME280;65787;59.922;10.742;2023-06-10T00:27:32;101991.31;;;23.42;16.68
51315;BME280;65787;59.922;10.742;2023-06-10T00:30:04;101998.59;;;23.36;16.75
51315;BME280;65787;59.922;10.742;2023-06-10T00:32:32;101991.81;;;23.27;17.10
51315;BME280;65787;59.922;10.742;2023-06-10T00:34:57;102000.16;;;23.21;17.13
51315;BME280;65787;59.922;10.742;2023-06-10T00:37:22;102001.13;;;23.14;17.04
51315;BME280;65787;59.922;10.742;2023-06-10T00:39:48;102010.06;;;23.10;17.38
51315;BME280;65787;59.922;10.742;2023-06-10T00:42:13;102013.88;;;23.09;17.32
51315;BME280;65787;59.922;10.742;2023-06-10T00:44:38;102012.66;;;23.05;17.20
51315;BME280;65787;59.922;10.742;2023-06-10T00:47:04;102011.22;;;23.02;17.25
51315;BME280;65787;59.922;10.742;2023-06-10T00:49:30;102018.84;;;23.00;17.57
51315;BME280;65787;59.922;10.742;2023-06-10T00:51:56;102017.91;;;22.94;17.95
51315;BME280;65787;59.922;10.742;2023-06-10T00:54:21;102024.22;;;22.83;17.41
51315;BME280;65787;59.922;10.742;2023-06-10T00:56:47;102027.06;;;22.76;18.06
51315;BME280;65787;59.922;10.742;2023-06-10T00:59:12;102028.47;;;22.67;17.94
51315;BME280;65787;59.922;10.742;2023-06-10T01:01:39;102034.09;;;22.60;18.14
51315;BME280;65787;59.922;10.742;2023-06-10T01:04:04;102022.75;;;22.57;18.82
51315;BME280;65787;59.922;10.742;2023-06-10T01:06:36;102037.16;;;22.52;18.05
51315;BME280;65787;59.922;10.742;2023-06-10T01:14:28;102027.84;;;22.41;18.52
51315;BME280;65787;59.922;10.742;2023-06-10T01:16:54;102037.44;;;22.32;18.34
51315;BME280;65787;59.922;10.742;2023-06-10T01:19:19;102047.22;;;22.28;18.28
51315;BME280;65787;59.922;10.742;2023-06-10T01:21:45;102042.81;;;22.27;19.54
51315;BME280;65787;59.922;10.742;2023-06-10T01:24:14;102043.09;;;22.19;18.52
51315;BME280;65787;59.922;10.742;2023-06-10T01:26:39;102039.38;;;22.13;18.52
51315;BME280;65787;59.922;10.742;2023-06-10T01:29:11;102047.72;;;22.07;18.53
51315;BME280;65787;59.922;10.742;2023-06-10T01:31:43;102049.69;;;21.99;19.24
51315;BME280;65787;59.922;10.742;2023-06-10T01:34:16;102043.25;;;21.94;18.84
51315;BME280;65787;59.922;10.742;2023-06-10T01:36:42;102046.44;;;21.91;19.27
51315;BME280;65787;59.922;10.742;2023-06-10T01:39:10;102052.88;;;21.96;18.64
51315;BME280;65787;59.922;10.742;2023-06-10T01:41:36;102053.81;;;21.90;18.78
51315;BME280;65787;59.922;10.742;2023-06-10T01:44:02;102054.50;;;21.85;18.91
51315;BME280;65787;59.922;10.742;2023-06-10T01:46:28;102062.94;;;21.84;19.36
51315;BME280;65787;59.922;10.742;2023-06-10T01:48:53;102053.13;;;21.76;18.89
51315;BME280;65787;59.922;10.742;2023-06-10T01:51:19;102056.34;;;21.73;18.85
51315;BME280;65787;59.922;10.742;2023-06-10T01:53:44;102058.47;;;21.71;19.61
51315;BME280;65787;59.922;10.742;2023-06-10T01:56:09;102060.19;;;21.65;19.46
51315;BME280;65787;59.922;10.742;2023-06-10T01:58:34;102069.72;;;21.63;19.00
51315;BME280;65787;59.922;10.742;2023-06-10T02:01:00;102062.22;;;21.58;19.33
51315;BME280;65787;59.922;10.742;2023-06-10T02:03:25;102078.84;;;21.57;19.51
51315;BME280;65787;59.922;10.742;2023-06-10T02:05:50;102078.22;;;21.55;19.56
51315;BME280;65787;59.922;10.742;2023-06-10T02:08:16;102078.44;;;21.53;19.48
51315;BME280;65787;59.922;10.742;2023-06-10T02:10:41;102087.09;;;21.50;20.20
51315;BME280;65787;59.922;10.742;2023-06-10T02:13:06;102088.19;;;21.49;20.08
51315;BME280;65787;59.922;10.742;2023-06-10T02:15:32;102092.19;;;21.46;19.67
51315;BME280;65787;59.922;10.742;2023-06-10T02:17:57;102090.94;;;21.42;19.83
51315;BME280;65787;59.922;10.742;2023-06-10T02:20:23;102089.50;;;21.40;20.01
51315;BME280;65787;59.922;10.742;2023-06-10T02:22:48;102093.13;;;21.34;21.10
51315;BME280;65787;59.922;10.742;2023-06-10T02:25:13;102094.19;;;21.33;20.01
51315;BME280;65787;59.922;10.742;2023-06-10T02:27:38;102100.72;;;21.32;19.89
51315;BME280;65787;59.922;10.742;2023-06-10T02:30:04;102103.44;;;21.32;20.24
51315;BME280;65787;59.922;10.742;2023-06-10T02:32:30;102104.91;;;21.34;20.03
51315;BME280;65787;59.922;10.742;2023-06-10T02:34:55;102104.31;;;21.32;19.64
51315;BME280;65787;59.922;10.742;2023-06-10T02:37:20;102106.88;;;21.27;19.98
51315;BME280;65787;59.922;10.742;2023-06-10T02:39:46;102112.16;;;21.22;19.87
51315;BME280;65787;59.922;10.742;2023-06-10T02:42:11;102115.72;;;21.22;19.95
51315;BME280;65787;59.922;10.742;2023-06-10T02:44:37;102111.34;;;21.21;19.93
51315;BME280;65787;59.922;10.742;2023-06-10T02:47:02;102114.50;;;21.18;20.16
51315;BME280;65787;59.922;10.742;2023-06-10T02:49:27;102112.59;;;21.19;19.88
51315;BME280;65787;59.922;10.742;2023-06-10T02:51:53;102126.50;;;21.17;19.93
51315;BME280;65787;59.922;10.742;2023-06-10T02:54:21;102131.34;;;21.15;20.07
51315;BME280;65787;59.922;10.742;2023-06-10T02:56:47;102130.28;;;21.16;20.29
51315;BME280;65787;59.922;10.742;2023-06-10T02:59:13;102135.97;;;21.15;19.98
51315;BME280;65787;59.922;10.742;2023-06-10T03:01:39;102138.09;;;21.13;19.93
51315;BME280;65787;59.922;10.742;2023-06-10T03:04:04;102135.97;;;21.15;19.66
51315;BME280;65787;59.922;10.742;2023-06-10T03:06:30;102133.47;;;21.13;19.83
51315;BME280;65787;59.922;10.742;2023-06-10T03:08:55;102143.13;;;21.16;19.94
51315;BME280;65787;59.922;10.742;2023-06-10T03:11:20;102148.59;;;21.16;20.10
51315;BME280;65787;59.922;10.742;2023-06-10T03:13:46;102143.72;;;21.18;20.53
51315;BME280;65787;59.922;10.742;2023-06-10T03:16:12;102151.31;;;21.16;20.17
51315;BME280;65787;59.922;10.742;2023-06-10T03:18:37;102154.06;;;21.16;20.88
51315;BME280;65787;59.922;10.742;2023-06-10T03:21:03;102155.50;;;21.18;20.84
51315;BME280;65787;59.922;10.742;2023-06-10T03:23:28;102147.72;;;21.15;20.48
51315;BME280;65787;59.922;10.742;2023-06-10T03:25:54;102150.47;;;21.15;20.32
51315;BME280;65787;59.922;10.742;2023-06-10T03:28:20;102155.53;;;21.12;20.51
51315;BME280;65787;59.922;10.742;2023-06-10T03:30:46;102154.72;;;21.11;20.88
51315;BME280;65787;59.922;10.742;2023-06-10T03:33:12;102157.84;;;21.15;20.67
51315;BME280;65787;59.922;10.742;2023-06-10T03:35:37;102160.75;;;21.20;21.18
51315;BME280;65787;59.922;10.742;2023-06-10T03:38:02;102162.03;;;21.17;21.15
51315;BME280;65787;59.922;10.742;2023-06-10T03:40:28;102162.66;;;21.19;20.70
51315;BME280;65787;59.922;10.742;2023-06-10T03:42:55;102164.53;;;21.19;20.66
51315;BME280;65787;59.922;10.742;2023-06-10T03:45:20;102169.97;;;21.19;20.79
51315;BME280;65787;59.922;10.742;2023-06-10T03:47:46;102167.03;;;21.20;20.79
51315;BME280;65787;59.922;10.742;2023-06-10T03:50:13;102173.72;;;21.24;20.85
51315;BME280;65787;59.922;10.742;2023-06-10T03:52:38;102176.22;;;21.26;20.63
51315;BME280;65787;59.922;10.742;2023-06-10T03:55:05;102169.94;;;21.25;20.68
51315;BME280;65787;59.922;10.742;2023-06-10T03:57:31;102176.44;;;21.24;20.62
51315;BME280;65787;59.922;10.742;2023-06-10T03:59:56;102175.09;;;21.34;20.31
51315;BME280;65787;59.922;10.742;2023-06-10T04:02:21;102173.25;;;21.34;20.42
51315;BME280;65787;59.922;10.742;2023-06-10T04:04:47;102175.72;;;21.36;20.43
51315;BME280;65787;59.922;10.742;2023-06-10T04:07:13;102171.28;;;21.41;20.47
51315;BME280;65787;59.922;10.742;2023-06-10T04:09:39;102175.06;;;21.40;20.38
51315;BME280;65787;59.922;10.742;2023-06-10T04:12:04;102176.75;;;21.41;20.44
51315;BME280;65787;59.922;10.742;2023-06-10T04:14:33;102166.44;;;21.43;20.35
51315;BME280;65787;59.922;10.742;2023-06-10T04:16:59;102170.63;;;21.46;20.29
51315;BME280;65787;59.922;10.742;2023-06-10T04:19:24;102168.94;;;21.45;20.23
51315;BME280;65787;59.922;10.742;2023-06-10T04:21:49;102168.88;;;21.52;20.23
51315;BME280;65787;59.922;10.742;2023-06-10T04:24:15;102173.06;;;21.54;19.98
51315;BME280;65787;59.922;10.742;2023-06-10T04:26:40;102176.19;;;21.58;20.44
51315;BME280;65787;59.922;10.742;2023-06-10T04:29:05;102180.78;;;21.64;20.57
51315;BME280;65787;59.922;10.742;2023-06-10T04:31:30;102178.41;;;21.68;20.51
51315;BME280;65787;59.922;10.742;2023-06-10T04:33:57;102186.38;;;21.69;20.29
51315;BME280;65787;59.922;10.742;2023-06-10T04:36:22;102182.38;;;21.72;20.04
51315;BME280;65787;59.922;10.742;2023-06-10T04:38:48;102186.69;;;21.79;20.05
51315;BME280;65787;59.922;10.742;2023-06-10T04:41:14;102190.97;;;21.75;20.06
51315;BME280;65787;59.922;10.742;2023-06-10T04:43:39;102191.13;;;21.80;19.73
51315;BME280;65787;59.922;10.742;2023-06-10T04:46:04;102198.84;;;21.83;20.47
51315;BME280;65787;59.922;10.742;2023-06-10T04:48:30;102190.81;;;21.89;20.20
51315;BME280;65787;59.922;10.742;2023-06-10T04:50:55;102190.22;;;21.87;20.20
51315;BME280;65787;59.922;10.742;2023-06-10T04:53:21;102200.44;;;21.91;19.99
51315;BME280;65787;59.922;10.742;2023-06-10T04:55:47;102195.38;;;21.95;19.88
51315;BME280;65787;59.922;10.742;2023-06-10T04:58:13;102194.53;;;21.94;19.80
51315;BME280;65787;59.922;10.742;2023-06-10T05:00:38;102198.31;;;21.93;19.73
51315;BME280;65787;59.922;10.742;2023-06-10T05:03:04;102198.69;;;21.97;19.51
51315;BME280;65787;59.922;10.742;2023-06-10T05:05:29;102199.31;;;21.99;20.10
51315;BME280;65787;59.922;10.742;2023-06-10T05:07:55;102188.63;;;21.97;19.62
51315;BME280;65787;59.922;10.742;2023-06-10T05:10:20;102194.91;;;21.98;19.99
51315;BME280;65787;59.922;10.742;2023-06-10T05:12:45;102195.16;;;21.96;19.72
51315;BME280;65787;59.922;10.742;2023-06-10T05:15:10;102192.19;;;21.98;19.56
51315;BME280;65787;59.922;10.742;2023-06-10T05:17:36;102189.00;;;22.01;19.56
51315;BME280;65787;59.922;10.742;2023-06-10T05:20:02;102188.38;;;21.99;19.41
51315;BME280;65787;59.922;10.742;2023-06-10T05:22:27;102188.16;;;22.00;19.48
51315;BME280;65787;59.922;10.742;2023-06-10T05:24:52;102191.75;;;22.01;20.09
51315;BME280;65787;59.922;10.742;2023-06-10T05:27:18;102191.03;;;22.06;19.48
51315;BME280;65787;59.922;10.742;2023-06-10T05:29:43;102189.34;;;22.04;19.48
51315;BME280;65787;59.922;10.742;2023-06-10T05:32:08;102189.72;;;22.08;19.59
51315;BME280;65787;59.922;10.742;2023-06-10T05:34:34;102181.91;;;22.12;19.38
51315;BME280;65787;59.922;10.742;2023-06-10T05:36:59;102188.25;;;22.12;19.75
51315;BME280;65787;59.922;10.742;2023-06-10T05:39:24;102185.50;;;22.12;19.57
51315;BME280;65787;59.922;10.742;2023-06-10T05:41:50;102184.03;;;22.10;19.46
51315;BME280;65787;59.922;10.742;2023-06-10T05:44:15;102187.00;;;22.08;19.85
51315;BME280;65787;59.922;10.742;2023-06-10T05:46:40;102184.91;;;21.92;20.73
51315;BME280;65787;59.922;10.742;2023-06-10T05:49:06;102185.41;;;22.00;19.86
51315;BME280;65787;59.922;10.742;2023-06-10T05:51:31;102179.88;;;22.07;19.53
51315;BME280;65787;59.922;10.742;2023-06-10T05:53:56;102184.91;;;22.10;19.46
51315;BME280;65787;59.922;10.742;2023-06-10T05:56:21;102181.91;;;22.12;19.68
51315;BME280;65787;59.922;10.742;2023-06-10T05:58:47;102185.03;;;22.15;19.78
51315;BME280;65787;59.922;10.742;2023-06-10T06:01:13;102186.47;;;22.18;19.38
51315;BME280;65787;59.922;10.742;2023-06-10T06:03:38;102194.22;;;22.21;19.63
51315;BME280;65787;59.922;10.742;2023-06-10T06:06:03;102189.59;;;22.21;19.53
51315;BME280;65787;59.922;10.742;2023-06-10T06:08:29;102198.03;;;22.20;19.94
51315;BME280;65787;59.922;10.742;2023-06-10T06:10:54;102202.69;;;22.19;19.90
51315;BME280;65787;59.922;10.742;2023-06-10T06:13:19;102193.16;;;22.22;19.53
51315;BME280;65787;59.922;10.742;2023-06-10T06:15:45;102206.78;;;22.29;19.69
51315;BME280;65787;59.922;10.742;2023-06-10T06:18:11;102205.13;;;22.28;19.47
51315;BME280;65787;59.922;10.742;2023-06-10T06:20:36;102212.41;;;22.34;19.46
51315;BME280;65787;59.922;10.742;2023-06-10T06:23:01;102215.16;;;22.34;20.03
51315;BME280;65787;59.922;10.742;2023-06-10T06:25:27;102212.56;;;22.39;19.71
51315;BME280;65787;59.922;10.742;2023-06-10T06:27:52;102205.78;;;22.41;19.46
51315;BME280;65787;59.922;10.742;2023-06-10T06:30:17;102213.22;;;22.53;19.51
51315;BME280;65787;59.922;10.742;2023-06-10T06:32:43;102203.59;;;22.62;19.32
51315;BME280;65787;59.922;10.742;2023-06-10T06:35:08;102206.50;;;22.67;19.17
51315;BME280;65787;59.922;10.742;2023-06-10T06:37:33;102209.72;;;22.64;19.69
51315;BME280;65787;59.922;10.742;2023-06-10T06:39:59;102204.72;;;22.73;19.23
51315;BME280;65787;59.922;10.742;2023-06-10T06:42:25;102209.75;;;22.76;19.01
51315;BME280;65787;59.922;10.742;2023-06-10T06:44:50;102209.31;;;22.79;18.94
51315;BME280;65787;59.922;10.742;2023-06-10T06:47:15;102206.03;;;22.70;18.79
51315;BME280;65787;59.922;10.742;2023-06-10T06:49:45;102212.69;;;22.63;18.64
51315;BME280;65787;59.922;10.742;2023-06-10T06:52:10;102207.22;;;22.63;18.98
51315;BME280;65787;59.922;10.742;2023-06-10T06:54:35;102203.06;;;22.72;18.56
51315;BME280;65787;59.922;10.742;2023-06-10T06:57:00;102205.25;;;22.81;18.82
51315;BME280;65787;59.922;10.742;2023-06-10T06:59:26;102214.44;;;22.87;18.65
51315;BME280;65787;59.922;10.742;2023-06-10T07:01:51;102216.34;;;22.87;18.83
51315;BME280;65787;59.922;10.742;2023-06-10T07:04:19;102211.34;;;22.95;18.68
51315;BME280;65787;59.922;10.742;2023-06-10T07:06:46;102220.53;;;23.01;18.87
51315;BME280;65787;59.922;10.742;2023-06-10T07:09:12;102210.91;;;22.98;18.72
51315;BME280;65787;59.922;10.742;2023-06-10T07:11:37;102210.06;;;22.98;18.90
51315;BME280;65787;59.922;10.742;2023-06-10T07:14:02;102208.59;;;22.95;18.81
51315;BME280;65787;59.922;10.742;2023-06-10T07:16:28;102203.88;;;23.03;18.88
51315;BME280;65787;59.922;10.742;2023-06-10T07:18:53;102206.59;;;23.03;18.93
51315;BME280;65787;59.922;10.742;2023-06-10T07:21:19;102206.91;;;23.13;18.97
51315;BME280;65787;59.922;10.742;2023-06-10T07:23:44;102210.03;;;23.16;18.68
51315;BME280;65787;59.922;10.742;2023-06-10T07:26:10;102206.91;;;23.13;18.96
51315;BME280;65787;59.922;10.742;2023-06-10T07:28:36;102211.91;;;23.16;19.16
51315;BME280;65787;59.922;10.742;2023-06-10T07:31:01;102208.84;;;23.24;18.62
51315;BME280;65787;59.922;10.742;2023-06-10T07:33:27;102209.56;;;23.31;18.71
51315;BME280;65787;59.922;10.742;2023-06-10T07:35:52;102211.59;;;23.36;18.77
51315;BME280;65787;59.922;10.742;2023-06-10T07:38:17;102214.69;;;23.28;18.74
51315;BME280;65787;59.922;10.742;2023-06-10T07:40:43;102203.13;;;23.37;18.39
51315;BME280;65787;59.922;10.742;2023-06-10T07:43:08;102204.69;;;23.45;18.45
51315;BME280;65787;59.922;10.742;2023-06-10T07:45:33;102202.16;;;23.44;18.66
51315;BME280;65787;59.922;10.742;2023-06-10T07:47:58;102200.66;;;23.48;18.62
51315;BME280;65787;59.922;10.742;2023-06-10T07:50:24;102213.03;;;23.38;19.09
51315;BME280;65787;59.922;10.742;2023-06-10T07:52:49;102199.19;;;23.45;18.40
51315;BME280;65787;59.922;10.742;2023-06-10T07:55:14;102197.66;;;23.49;18.47
51315;BME280;65787;59.922;10.742;2023-06-10T07:57:40;102203.03;;;23.56;18.85
51315;BME280;65787;59.922;10.742;2023-06-10T08:00:06;102205.31;;;23.59;18.32
51315;BME280;65787;59.922;10.742;2023-06-10T08:02:31;102198.84;;;23.65;18.36
51315;BME280;65787;59.922;10.742;2023-06-10T08:04:56;102196.47;;;23.69;18.42
51315;BME280;65787;59.922;10.742;2023-06-10T08:07:22;102196.34;;;23.75;18.31
51315;BME280;65787;59.922;10.742;2023-06-10T08:09:47;102199.56;;;23.84;18.16
51315;BME280;65787;59.922;10.742;2023-06-10T08:12:12;102205.56;;;23.81;18.46
51315;BME280;65787;59.922;10.742;2023-06-10T08:14:38;102199.56;;;23.72;18.25
51315;BME280;65787;59.922;10.742;2023-06-10T08:17:03;102193.09;;;23.78;18.29
51315;BME280;65787;59.922;10.742;2023-06-10T08:19:31;102189.53;;;23.90;18.29
51315;BME280;65787;59.922;10.742;2023-06-10T08:21:56;102198.84;;;24.01;18.02
51315;BME280;65787;59.922;10.742;2023-06-10T08:24:21;102187.16;;;23.93;18.44
51315;BME280;65787;59.922;10.742;2023-06-10T08:26:47;102198.59;;;24.02;18.08
51315;BME280;65787;59.922;10.742;2023-06-10T08:29:12;102190.72;;;24.06;17.97
51315;BME280;65787;59.922;10.742;2023-06-10T08:31:40;102193.59;;;23.99;18.10
51315;BME280;65787;59.922;10.742;2023-06-10T08:34:06;102189.50;;;24.13;18.01
51315;BME280;65787;59.922;10.742;2023-06-10T08:36:31;102189.72;;;24.24;17.82
51315;BME280;65787;59.922;10.742;2023-06-10T08:38:56;102194.53;;;24.17;17.60
51315;BME280;65787;59.922;10.742;2023-06-10T08:41:22;102193.88;;;24.26;17.79
51315;BME280;65787;59.922;10.742;2023-06-10T08:43:59;102199.16;;;24.28;17.71
51315;BME280;65787;59.922;10.742;2023-06-10T08:46:28;102196.13;;;24.41;17.73
51315;BME280;65787;59.922;10.742;2023-06-10T08:48:55;102196.16;;;24.29;17.64
51315;BME280;65787;59.922;10.742;2023-06-10T08:51:22;102194.66;;;24.50;17.83
51315;BME280;65787;59.922;10.742;2023-06-10T08:53:52;102181.72;;;24.63;17.75
51315;BME280;65787;59.922;10.742;2023-06-10T08:56:18;102187.47;;;24.61;17.77
51315;BME280;65787;59.922;10.742;2023-06-10T08:58:43;102182.38;;;24.70;17.41
51315;BME280;65787;59.922;10.742;2023-06-10T09:01:09;102182.41;;;24.87;17.21
51315;BME280;65787;59.922;10.742;2023-06-10T09:03:36;102185.50;;;24.90;17.48
51315;BME280;65787;59.922;10.742;2023-06-10T09:06:04;102164.53;;;25.01;17.40
51315;BME280;65787;59.922;10.742;2023-06-10T09:08:30;102168.19;;;25.07;17.24
51315;BME280;65787;59.922;10.742;2023-06-10T09:10:55;102168.19;;;25.07;16.90
51315;BME280;65787;59.922;10.742;2023-06-10T09:13:21;102175.28;;;25.20;17.16
51315;BME280;65787;59.922;10.742;2023-06-10T09:15:47;102164.72;;;25.28;17.21
51315;BME280;65787;59.922;10.742;2023-06-10T09:18:14;102170.13;;;25.40;17.06
51315;BME280;65787;59.922;10.742;2023-06-10T09:20:41;102170.47;;;25.44;16.63
51315;BME280;65787;59.922;10.742;2023-06-10T09:23:07;102157.84;;;25.48;16.96
51315;BME280;65787;59.922;10.742;2023-06-10T09:25:36;102166.06;;;25.43;16.80
51315;BME280;65787;59.922;10.742;2023-06-10T09:28:02;102171.03;;;25.46;16.56
51315;BME280;65787;59.922;10.742;2023-06-10T09:30:29;102168.13;;;25.53;16.68
51315;BME280;65787;59.922;10.742;2023-06-10T09:32:55;102162.25;;;25.66;16.32
51315;BME280;65787;59.922;10.742;2023-06-10T09:35:22;102152.94;;;25.67;16.49
51315;BME280;65787;59.922;10.742;2023-06-10T09:37:48;102155.47;;;25.74;15.99
51315;BME280;65787;59.922;10.742;2023-06-10T09:40:14;102164.63;;;25.79;16.43
51315;BME280;65787;59.922;10.742;2023-06-10T09:42:40;102158.94;;;25.86;16.35
51315;BME280;65787;59.922;10.742;2023-06-10T09:45:05;102159.63;;;25.93;16.49
51315;BME280;65787;59.922;10.742;2023-06-10T09:47:31;102153.88;;;25.95;15.99
51315;BME280;65787;59.922;10.742;2023-06-10T09:49:58;102160.06;;;26.07;16.30
51315;BME280;65787;59.922;10.742;2023-06-10T09:52:24;102152.84;;;26.01;15.58
51315;BME280;65787;59.922;10.742;2023-06-10T09:55:00;102157.00;;;26.03;15.62
51315;BME280;65787;59.922;10.742;2023-06-10T09:57:25;102142.56;;;26.18;15.83
51315;BME280;65787;59.922;10.742;2023-06-10T09:59:54;102142.06;;;26.21;15.65
51315;BME280;65787;59.922;10.742;2023-06-10T10:02:19;102130.38;;;26.36;15.61
51315;BME280;65787;59.922;10.742;2023-06-10T10:04:45;102137.16;;;26.51;15.24
51315;BME280;65787;59.922;10.742;2023-06-10T10:07:11;102140.47;;;26.53;14.94
51315;BME280;65787;59.922;10.742;2023-06-10T10:09:40;102132.63;;;26.67;14.92
51315;BME280;65787;59.922;10.742;2023-06-10T10:12:07;102128.19;;;26.60;15.36
51315;BME280;65787;59.922;10.742;2023-06-10T10:14:34;102128.53;;;26.69;14.50
51315;BME280;65787;59.922;10.742;2023-06-10T10:17:01;102128.56;;;26.74;15.18
51315;BME280;65787;59.922;10.742;2023-06-10T10:19:49;102125.25;;;27.04;14.89
51315;BME280;65787;59.922;10.742;2023-06-10T10:22:26;102128.19;;;27.30;15.07
51315;BME280;65787;59.922;10.742;2023-06-10T10:24:59;102126.13;;;27.58;14.69
51315;BME280;65787;59.922;10.742;2023-06-10T10:27:27;102119.66;;;27.85;14.36
51315;BME280;65787;59.922;10.742;2023-06-10T10:29:53;102119.75;;;28.00;14.41
51315;BME280;65787;59.922;10.742;2023-06-10T10:32:21;102113.44;;;28.15;14.04
51315;BME280;65787;59.922;10.742;2023-06-10T10:34:50;102109.06;;;28.39;14.46
51315;BME280;65787;59.922;10.742;2023-06-10T10:37:19;102109.13;;;28.70;14.39
51315;BME280;65787;59.922;10.742;2023-06-10T10:39:45;102107.72;;;28.99;13.88
51315;BME280;65787;59.922;10.742;2023-06-10T10:42:10;102095.81;;;29.24;13.99
51315;BME280;65787;59.922;10.742;2023-06-10T10:44:38;102099.09;;;29.46;13.65
51315;BME280;65787;59.922;10.742;2023-06-10T10:47:06;102103.13;;;29.69;13.52
51315;BME280;65787;59.922;10.742;2023-06-10T10:49:32;102109.97;;;29.98;13.49
51315;BME280;65787;59.922;10.742;2023-06-10T10:52:00;102100.97;;;30.21;12.57
51315;BME280;65787;59.922;10.742;2023-06-10T10:54:32;102093.38;;;30.42;13.19
51315;BME280;65787;59.922;10.742;2023-06-10T10:57:11;102091.81;;;30.65;12.34
51315;BME280;65787;59.922;10.742;2023-06-10T11:02:18;102088.59;;;31.17;12.63
51315;BME280;65787;59.922;10.742;2023-06-10T11:04:44;102089.69;;;31.40;11.91
51315;BME280;65787;59.922;10.742;2023-06-10T11:07:10;102092.41;;;31.45;10.78
51315;BME280;65787;59.922;10.742;2023-06-10T11:09:35;102090.41;;;31.26;10.43
51315;BME280;65787;59.922;10.742;2023-06-10T11:12:00;102090.44;;;31.51;11.65
51315;BME280;65787;59.922;10.742;2023-06-10T11:14:26;102091.06;;;31.67;11.58
51315;BME280;65787;59.922;10.742;2023-06-10T11:16:53;102097.84;;;31.79;11.55
51315;BME280;65787;59.922;10.742;2023-06-10T11:19:43;102093.44;;;31.97;10.95
51315;BME280;65787;59.922;10.742;2023-06-10T11:22:15;102089.84;;;31.97;10.91
51315;BME280;65787;59.922;10.742;2023-06-10T11:24:46;102095.53;;;31.87;10.35
51315;BME280;65787;59.922;10.742;2023-06-10T11:27:16;102090.25;;;31.85;10.76
51315;BME280;65787;59.922;10.742;2023-06-10T11:29:55;102087.72;;;31.89;10.97
51315;BME280;65787;59.922;10.742;2023-06-10T11:32:20;102086.63;;;32.09;10.64
51315;BME280;65787;59.922;10.742;2023-06-10T11:34:51;102086.78;;;32.17;11.23
51315;BME280;65787;59.922;10.742;2023-06-10T11:37:17;102081.97;;;32.23;9.58
51315;BME280;65787;59.922;10.742;2023-06-10T11:39:42;102075.91;;;32.54;10.41
51315;BME280;65787;59.922;10.742;2023-06-10T11:42:08;102078.34;;;32.60;10.20
51315;BME280;65787;59.922;10.742;2023-06-10T11:44:34;102075.03;;;32.58;9.92
51315;BME280;65787;59.922;10.742;2023-06-10T11:47:02;102082.50;;;32.77;10.61
51315;BME280;65787;59.922;10.742;2023-06-10T11:49:28;102079.44;;;32.92;9.33
51315;BME280;65787;59.922;10.742;2023-06-10T11:51:53;102073.53;;;33.13;10.60
51315;BME280;65787;59.922;10.742;2023-06-10T11:54:18;102075.69;;;33.16;9.47
51315;BME280;65787;59.922;10.742;2023-06-10T11:56:44;102078.69;;;33.33;9.35
51315;BME280;65787;59.922;10.742;2023-06-10T11:59:09;102074.78;;;33.34;9.20
51315;BME280;65787;59.922;10.742;2023-06-10T12:01:41;102062.47;;;33.35;9.62
51315;BME280;65787;59.922;10.742;2023-06-10T12:04:08;102068.28;;;33.25;9.62
51315;BME280;65787;59.922;10.742;2023-06-10T12:06:37;102059.66;;;33.63;9.80
51315;BME280;65787;59.922;10.742;2023-06-10T12:09:03;102064.44;;;33.63;10.09
51315;BME280;65787;59.922;10.742;2023-06-10T12:11:28;102049.25;;;33.83;9.24
51315;BME280;65787;59.922;10.742;2023-06-10T12:13:54;102061.50;;;33.96;9.60
51315;BME280;65787;59.922;10.742;2023-06-10T12:16:19;102048.19;;;34.15;9.31
51315;BME280;65787;59.922;10.742;2023-06-10T12:18:45;102058.84;;;34.13;8.12
51315;BME280;65787;59.922;10.742;2023-06-10T12:21:20;102062.06;;;34.06;8.96
51315;BME280;65787;59.922;10.742;2023-06-10T12:26:44;102056.88;;;34.27;8.53
51315;BME280;65787;59.922;10.742;2023-06-10T12:29:19;102046.38;;;34.56;8.87
51315;BME280;65787;59.922;10.742;2023-06-10T12:31:52;102043.16;;;34.94;8.95
51315;BME280;65787;59.922;10.742;2023-06-10T12:34:17;102046.25;;;35.23;8.73
51315;BME280;65787;59.922;10.742;2023-06-10T12:36:47;102039.00;;;35.71;8.87
51315;BME280;65787;59.922;10.742;2023-06-10T12:39:13;102047.41;;;35.80;8.87
51315;BME280;65787;59.922;10.742;2023-06-10T12:41:38;102034.06;;;36.03;8.71
51315;BME280;65787;59.922;10.742;2023-06-10T12:44:04;102040.47;;;36.12;8.89
51315;BME280;65787;59.922;10.742;2023-06-10T12:46:35;102058.13;;;36.30;7.91